createdAt,value
2023-04-17T00:01:56.994Z,16.37
2023-04-17T00:04:24.026Z,15.77
2023-04-17T00:06:54.134Z,17.30
2023-04-17T00:09:22.373Z,17.23
2023-04-17T00:11:49.647Z,16.47
2023-04-17T00:14:16.528Z,16.23
2023-04-17T00:16:43.767Z,16.83
2023-04-17T00:19:11.293Z,16.93
2023-04-17T00:21:38.788Z,17.13
2023-04-17T00:24:06.112Z,16.80
2023-04-17T00:26:34.662Z,17.07
2023-04-17T00:29:02.079Z,16.93
2023-04-17T00:31:29.067Z,16.77
2023-04-17T00:33:56.448Z,17.40
2023-04-17T00:36:23.303Z,17.87
2023-04-17T00:38:50.544Z,17.67
2023-04-17T00:41:17.842Z,17.33
2023-04-17T00:43:46.445Z,17.37
2023-04-17T00:46:13.537Z,17.70
2023-04-17T00:48:41.334Z,17.27
2023-04-17T00:51:08.583Z,18.27
2023-04-17T00:53:36.865Z,18.03
2023-04-17T00:56:05.559Z,17.27
2023-04-17T00:58:33.265Z,17.50
2023-04-17T01:01:01.569Z,18.33
2023-04-17T01:03:30.166Z,18.03
2023-04-17T01:05:57.343Z,18.93
2023-04-17T01:08:24.751Z,19.00
2023-04-17T01:10:51.663Z,17.73
2023-04-17T01:13:18.674Z,18.33
2023-04-17T01:15:46.928Z,17.73
2023-04-17T01:18:16.918Z,17.90
2023-04-17T01:20:43.810Z,18.07
2023-04-17T01:23:12.054Z,17.93
2023-04-17T01:25:40.411Z,18.10
2023-04-17T01:28:07.815Z,18.33
2023-04-17T01:30:35.298Z,17.53
2023-04-17T01:33:02.685Z,18.13
2023-04-17T01:35:29.609Z,17.10
2023-04-17T01:37:56.914Z,16.73
2023-04-17T01:40:23.801Z,17.47
2023-04-17T01:42:52.360Z,17.67
2023-04-17T01:45:19.360Z,18.30
2023-04-17T01:47:47.559Z,17.13
2023-04-17T01:50:14.604Z,17.10
2023-04-17T01:52:41.796Z,17.83
2023-04-17T01:55:09.559Z,17.53
2023-04-17T01:57:37.028Z,17.90
2023-04-17T02:00:10.665Z,17.13
2023-04-17T02:02:38.055Z,17.90
2023-04-17T02:05:05.855Z,17.57
2023-04-17T02:07:33.003Z,17.30
2023-04-17T02:09:59.911Z,16.97
2023-04-17T02:12:27.111Z,17.47
2023-04-17T02:14:54.014Z,17.07
2023-04-17T02:17:22.681Z,17.70
2023-04-17T02:19:49.737Z,17.30
2023-04-17T02:22:18.950Z,17.30
2023-04-17T02:24:45.898Z,17.60
2023-04-17T02:27:13.155Z,16.73
2023-04-17T02:29:40.028Z,17.50
2023-04-17T02:32:07.233Z,18.07
2023-04-17T02:34:35.629Z,17.37
2023-04-17T02:37:02.563Z,16.60
2023-04-17T02:39:31.110Z,18.33
2023-04-17T02:41:58.405Z,17.83
2023-04-17T02:44:25.442Z,17.40
2023-04-17T02:46:52.666Z,16.87
2023-04-17T02:49:19.583Z,17.37
2023-04-17T02:51:48.345Z,17.70
2023-04-17T02:54:15.259Z,17.60
2023-04-17T02:56:42.252Z,17.57
2023-04-17T02:59:09.445Z,16.67
2023-04-17T03:01:38.987Z,17.23
2023-04-17T03:04:06.202Z,16.47
2023-04-17T03:06:33.903Z,16.63
2023-04-17T03:09:02.946Z,17.37
2023-04-17T03:11:30.150Z,17.17
2023-04-17T03:13:56.959Z,17.63
2023-04-17T03:16:24.410Z,16.60
2023-04-17T03:18:51.342Z,17.00
2023-04-17T03:21:18.258Z,17.27
2023-04-17T03:23:45.273Z,17.57
2023-04-17T03:26:14.396Z,16.70
2023-04-17T03:28:41.232Z,16.60
2023-04-17T03:31:08.497Z,17.60
2023-04-17T03:33:35.426Z,16.90
2023-04-17T03:36:02.643Z,16.40
2023-04-17T03:38:29.620Z,17.50
2023-04-17T03:40:56.943Z,16.30
2023-04-17T03:43:25.330Z,17.53
2023-04-17T03:45:53.015Z,16.53
2023-04-17T03:48:19.908Z,17.57
2023-04-17T03:50:47.324Z,17.03
2023-04-17T03:53:14.260Z,16.93
2023-04-17T03:55:41.643Z,16.60
2023-04-17T03:58:08.510Z,16.77
2023-04-17T04:00:37.746Z,16.93
2023-04-17T04:03:04.945Z,16.57
2023-04-17T04:05:32.310Z,16.53
2023-04-17T04:07:59.324Z,17.03
2023-04-17T04:10:26.632Z,15.80
2023-04-17T04:12:53.643Z,16.70
2023-04-17T04:15:21.030Z,15.50
2023-04-17T04:17:49.274Z,16.57
2023-04-17T04:20:16.642Z,17.07
2023-04-17T04:22:44.676Z,16.93
2023-04-17T04:25:12.662Z,16.53
2023-04-17T04:27:39.699Z,16.23
2023-04-17T04:30:10.655Z,17.00
2023-04-17T04:32:37.673Z,16.30
2023-04-17T04:35:07.861Z,16.07
2023-04-17T04:37:35.970Z,16.77
2023-04-17T04:40:10.959Z,16.37
2023-04-17T04:42:39.660Z,16.17
2023-04-17T04:45:08.213Z,15.70
2023-04-17T04:47:36.067Z,16.67
2023-04-17T04:50:03.537Z,17.40
2023-04-17T04:52:32.150Z,17.43
2023-04-17T04:54:59.398Z,17.57
2023-04-17T04:57:27.029Z,17.07
2023-04-17T04:59:54.322Z,16.00
2023-04-17T05:02:21.492Z,16.77
2023-04-17T05:04:48.848Z,16.93
2023-04-17T05:07:15.926Z,17.60
2023-04-17T05:09:44.560Z,16.57
2023-04-17T05:12:11.485Z,17.23
2023-04-17T05:14:39.750Z,17.57
2023-04-17T05:17:07.198Z,17.40
2023-04-17T05:19:34.479Z,17.37
2023-04-17T05:22:01.445Z,16.83
2023-04-17T05:24:28.732Z,18.00
2023-04-17T05:26:57.223Z,17.50
2023-04-17T05:29:25.735Z,17.80
2023-04-17T05:31:52.838Z,17.13
2023-04-17T05:34:20.146Z,17.53
2023-04-17T05:36:47.368Z,17.27
2023-04-17T05:39:14.274Z,16.60
2023-04-17T05:41:41.508Z,16.07
2023-04-17T05:44:09.900Z,16.50
2023-04-17T05:46:37.203Z,17.10
2023-04-17T05:49:04.131Z,17.23
2023-04-17T05:51:31.385Z,18.30
2023-04-17T05:53:58.323Z,19.17
2023-04-17T05:56:26.258Z,19.30
2023-04-17T05:58:53.097Z,18.83
2023-04-17T06:01:22.788Z,17.57
2023-04-17T06:03:49.814Z,17.23
2023-04-17T06:06:17.411Z,17.70
2023-04-17T06:08:44.586Z,16.43
2023-04-17T06:11:12.235Z,16.90
2023-04-17T06:13:39.192Z,16.63
2023-04-17T06:16:06.948Z,16.73
2023-04-17T06:18:35.222Z,16.90
2023-04-17T06:21:02.404Z,17.37
2023-04-17T06:23:29.360Z,17.20
2023-04-17T06:25:57.044Z,16.80
2023-04-17T06:28:24.084Z,16.50
2023-04-17T06:30:51.151Z,16.37
2023-04-17T06:33:18.039Z,16.90
2023-04-17T06:35:46.589Z,16.73
2023-04-17T06:38:13.727Z,15.43
2023-04-17T06:40:40.829Z,16.13
2023-04-17T06:43:07.698Z,16.03
2023-04-17T06:45:34.844Z,15.60
2023-04-17T06:48:02.088Z,16.60
2023-04-17T06:50:29.586Z,16.40
2023-04-17T06:52:57.791Z,15.43
2023-04-17T06:55:24.998Z,15.53
2023-04-17T06:57:51.991Z,16.20
2023-04-17T07:00:20.850Z,14.93
2023-04-17T07:02:47.910Z,14.57
2023-04-17T07:05:14.940Z,15.27
2023-04-17T07:07:41.910Z,16.27
2023-04-17T07:10:10.692Z,14.97
2023-04-17T07:12:37.704Z,15.33
2023-04-17T07:15:05.182Z,14.93
2023-04-17T07:17:32.437Z,14.90
2023-04-17T07:19:59.371Z,14.87
2023-04-17T07:22:27.395Z,15.03
2023-04-17T07:24:54.428Z,14.90
2023-04-17T07:27:22.981Z,14.37
2023-04-17T07:29:54.644Z,14.70
2023-04-17T07:32:22.258Z,14.00
2023-04-17T07:34:49.160Z,14.30
2023-04-17T07:37:16.252Z,13.73
2023-04-17T07:39:43.282Z,14.17
2023-04-17T07:42:11.708Z,13.87
2023-04-17T07:44:39.977Z,16.83
2023-04-17T07:47:07.313Z,15.40
2023-04-17T07:49:34.387Z,15.17
2023-04-17T07:52:01.703Z,15.33
2023-04-17T07:54:28.552Z,14.83
2023-04-17T07:56:58.591Z,15.37
2023-04-17T07:59:25.517Z,15.50
2023-04-17T08:01:53.862Z,15.40
2023-04-17T08:04:21.250Z,15.57
2023-04-17T08:06:49.149Z,15.40
2023-04-17T08:09:15.989Z,15.53
2023-04-17T08:11:56.276Z,14.50
2023-04-17T08:14:24.429Z,15.23
2023-04-17T08:16:52.834Z,15.37
2023-04-17T08:19:19.835Z,15.00
2023-04-17T08:21:47.756Z,15.53
2023-04-17T08:24:14.998Z,14.30
2023-04-17T08:26:43.149Z,15.33
2023-04-17T08:29:10.035Z,14.17
2023-04-17T08:31:37.008Z,14.47
2023-04-17T08:34:13.810Z,14.00
2023-04-17T08:36:42.697Z,13.87
2023-04-17T08:39:12.022Z,13.83
2023-04-17T08:41:44.555Z,12.40
2023-04-17T08:44:11.380Z,12.30
2023-04-17T08:46:39.621Z,12.93
2023-04-17T08:49:08.196Z,13.03
2023-04-17T08:51:36.120Z,12.17
2023-04-17T08:54:03.036Z,12.07
2023-04-17T08:56:30.949Z,11.97
2023-04-17T08:58:58.118Z,11.47
2023-04-17T09:01:25.445Z,10.93
2023-04-17T09:03:52.566Z,11.13
2023-04-17T09:06:21.389Z,10.77
2023-04-17T09:08:59.191Z,11.97
2023-04-17T09:11:27.098Z,17.57
2023-04-17T09:13:54.458Z,11.43
2023-04-17T09:16:21.462Z,10.20
2023-04-17T09:18:49.378Z,10.03
2023-04-17T09:21:20.886Z,8.87
2023-04-17T09:23:50.733Z,9.40
2023-04-17T09:26:19.565Z,9.43
2023-04-17T09:29:08.873Z,9.97
2023-04-17T09:31:37.480Z,9.00
2023-04-17T09:34:07.589Z,9.10
2023-04-17T09:36:36.875Z,8.17
2023-04-17T09:39:16.051Z,7.70
2023-04-17T09:41:42.938Z,8.37
2023-04-17T09:44:12.256Z,7.90
2023-04-17T09:46:43.019Z,8.73
2023-04-17T09:49:18.653Z,9.80
2023-04-17T09:51:46.206Z,8.33
2023-04-17T09:54:15.980Z,7.83
2023-04-17T09:56:43.901Z,8.00
2023-04-17T09:59:10.983Z,8.57
2023-04-17T10:01:38.716Z,9.13
2023-04-17T10:04:06.224Z,8.60
2023-04-17T10:06:34.799Z,9.60
2023-04-17T10:09:02.606Z,8.93
2023-04-17T10:11:36.516Z,9.17
2023-04-17T10:14:09.767Z,7.80
2023-04-17T10:16:38.101Z,7.30
2023-04-17T10:19:24.783Z,7.60
2023-04-17T10:22:25.457Z,7.60
2023-04-17T10:25:12.921Z,7.53
2023-04-17T10:27:46.430Z,6.97
2023-04-17T10:30:14.286Z,8.27
2023-04-17T10:32:46.750Z,7.93
2023-04-17T10:35:35.930Z,8.20
2023-04-17T10:38:05.711Z,9.20
2023-04-17T10:40:34.386Z,9.30
2023-04-17T10:43:26.418Z,8.93
2023-04-17T10:45:55.659Z,8.63
2023-04-17T10:48:27.800Z,9.27
2023-04-17T10:50:56.004Z,9.25
2023-04-17T10:53:44.120Z,8.43
2023-04-17T10:56:12.669Z,9.00
2023-04-17T10:58:57.620Z,7.70
2023-04-17T11:01:27.566Z,7.70
2023-04-17T11:03:56.309Z,7.13
2023-04-17T11:06:27.474Z,7.57
2023-04-17T11:08:56.804Z,7.35
2023-04-17T11:11:40.022Z,6.57
2023-04-17T11:14:14.693Z,7.15
2023-04-17T11:16:43.579Z,7.28
2023-04-17T11:19:12.028Z,7.75
2023-04-17T11:21:40.035Z,6.88
2023-04-17T11:24:06.901Z,6.53
2023-04-17T11:26:43.113Z,6.75
2023-04-17T11:29:15.520Z,6.40
2023-04-17T11:31:42.834Z,5.72
2023-04-17T11:34:09.891Z,6.40
2023-04-17T11:36:37.180Z,5.95
2023-04-17T11:39:04.929Z,6.40
2023-04-17T11:41:37.076Z,6.20
2023-04-17T11:44:03.971Z,6.00
2023-04-17T11:46:32.186Z,5.85
2023-04-17T11:48:59.103Z,6.00
2023-04-17T11:51:27.072Z,5.90
2023-04-17T11:53:55.586Z,5.93
2023-04-17T11:56:28.580Z,5.60
2023-04-17T11:58:57.012Z,5.90
2023-04-17T12:01:25.916Z,6.15
2023-04-17T12:03:55.291Z,5.60
2023-04-17T12:06:22.979Z,5.57
2023-04-17T12:08:51.387Z,6.18
2023-04-17T12:11:27.256Z,6.60
2023-04-17T12:13:55.189Z,6.35
2023-04-17T12:16:24.844Z,6.22
2023-04-17T12:18:52.363Z,6.20
2023-04-17T12:21:20.803Z,6.03
2023-04-17T12:23:47.906Z,6.20
2023-04-17T12:26:15.100Z,6.40
2023-04-17T12:28:42.107Z,6.35
2023-04-17T12:31:09.786Z,6.10
2023-04-17T12:33:36.631Z,6.88
2023-04-17T12:36:05.675Z,6.25
2023-04-17T12:38:33.991Z,6.70
2023-04-17T12:41:01.293Z,6.63
2023-04-17T12:43:28.136Z,7.47
2023-04-17T12:45:55.228Z,7.45
2023-04-17T12:48:22.019Z,6.25
2023-04-17T12:50:49.122Z,6.22
2023-04-17T12:53:16.140Z,6.53
2023-04-17T12:55:44.722Z,6.57
2023-04-17T12:58:13.031Z,6.35
2023-04-17T13:00:44.088Z,6.70
2023-04-17T13:03:12.129Z,6.65
2023-04-17T13:05:39.860Z,6.30
2023-04-17T13:08:09.652Z,6.78
2023-04-17T13:10:36.888Z,6.80
2023-04-17T13:13:05.042Z,7.13
2023-04-17T13:15:32.028Z,6.70
2023-04-17T13:17:58.941Z,6.63
2023-04-17T13:20:26.145Z,6.88
2023-04-17T13:22:53.034Z,6.97
2023-04-17T13:25:20.411Z,7.18
2023-04-17T13:27:47.239Z,6.53
2023-04-17T13:30:15.845Z,7.22
2023-04-17T13:32:43.024Z,6.30
2023-04-17T13:35:13.352Z,6.57
2023-04-17T13:37:40.326Z,6.40
2023-04-17T13:40:11.036Z,7.35
2023-04-17T13:42:38.076Z,6.57
2023-04-17T13:45:06.467Z,6.78
2023-04-17T13:47:34.703Z,6.70
2023-04-17T13:50:01.979Z,6.68
2023-04-17T13:52:28.967Z,6.03
2023-04-17T13:54:56.201Z,6.75
2023-04-17T13:57:23.496Z,6.43
2023-04-17T13:59:50.413Z,6.78
2023-04-17T14:02:17.367Z,6.75
2023-04-17T14:04:45.895Z,6.32
2023-04-17T14:07:15.266Z,6.68
2023-04-17T14:09:42.395Z,6.28
2023-04-17T14:12:09.208Z,6.95
2023-04-17T14:14:36.271Z,6.55
2023-04-17T14:17:04.097Z,6.53
2023-04-17T14:19:31.455Z,5.97
2023-04-17T14:21:59.640Z,5.53
2023-04-17T14:24:26.564Z,6.28
2023-04-17T14:26:53.627Z,5.57
2023-04-17T14:29:21.199Z,6.50
2023-04-17T14:31:48.148Z,6.07
2023-04-17T14:34:15.592Z,5.93
2023-04-17T14:36:43.511Z,6.07
2023-04-17T14:39:12.418Z,5.95
2023-04-17T14:41:39.540Z,5.57
2023-04-17T14:44:06.893Z,5.15
2023-04-17T14:46:33.889Z,5.95
2023-04-17T14:49:00.760Z,5.40
2023-04-17T14:51:30.430Z,5.10
2023-04-17T14:53:58.151Z,5.65
2023-04-17T14:56:26.519Z,4.68
2023-04-17T14:58:53.343Z,5.40
2023-04-17T15:01:20.578Z,4.85
2023-04-17T15:03:48.689Z,5.00
2023-04-17T15:06:16.399Z,4.95
2023-04-17T15:08:43.443Z,4.95
2023-04-17T15:11:10.440Z,5.32
2023-04-17T15:13:40.319Z,5.00
2023-04-17T15:16:09.637Z,5.03
2023-04-17T15:18:36.606Z,4.82
2023-04-17T15:21:04.275Z,4.80
2023-04-17T15:23:31.648Z,4.85
2023-04-17T15:26:01.455Z,4.55
2023-04-17T15:28:28.624Z,4.72
2023-04-17T15:30:57.539Z,4.93
2023-04-17T15:33:24.321Z,4.75
2023-04-17T15:35:55.010Z,4.97
2023-04-17T15:38:22.028Z,4.65
2023-04-17T15:40:49.192Z,3.88
2023-04-17T15:43:16.300Z,4.28
2023-04-17T15:45:43.147Z,4.50
2023-04-17T15:48:11.508Z,4.93
2023-04-17T15:50:38.369Z,4.78
2023-04-17T15:53:06.157Z,4.93
2023-04-17T15:55:39.419Z,4.93
2023-04-17T15:58:06.251Z,5.40
2023-04-17T16:00:34.051Z,5.88
2023-04-17T16:03:01.039Z,5.05
2023-04-17T16:05:29.794Z,5.65
2023-04-17T16:07:56.604Z,5.50
2023-04-17T16:10:23.881Z,5.70
2023-04-17T16:12:52.083Z,6.15
2023-04-17T16:15:19.320Z,5.50
2023-04-17T16:17:48.325Z,5.60
2023-04-17T16:20:16.053Z,5.50
2023-04-17T16:22:44.194Z,6.03
2023-04-17T16:25:13.957Z,5.45
2023-04-17T16:27:40.913Z,5.93
2023-04-17T16:30:10.240Z,5.50
2023-04-17T16:32:37.183Z,6.10
2023-04-17T16:35:04.991Z,6.07
2023-04-17T16:37:31.863Z,6.15
2023-04-17T16:40:04.600Z,6.68
2023-04-17T16:42:32.100Z,6.20
2023-04-17T16:44:59.038Z,6.72
2023-04-17T16:47:26.034Z,6.35
2023-04-17T16:49:53.239Z,6.57
2023-04-17T16:52:20.056Z,7.27
2023-04-17T16:54:47.379Z,7.53
2023-04-17T16:57:15.709Z,9.30
2023-04-17T16:59:42.889Z,9.60
2023-04-17T17:02:09.743Z,9.20
2023-04-17T17:04:36.950Z,8.50
2023-04-17T17:07:03.825Z,10.00
2023-04-17T17:09:30.782Z,10.27
2023-04-17T17:11:57.629Z,9.27
2023-04-17T17:14:25.968Z,9.10
2023-04-17T17:16:53.335Z,8.83
2023-04-17T17:19:20.872Z,9.10
2023-04-17T17:21:47.706Z,8.93
2023-04-17T17:24:14.903Z,8.60
2023-04-17T17:26:41.751Z,8.90
2023-04-17T17:29:08.609Z,9.00
2023-04-17T17:31:36.766Z,8.50
2023-04-17T17:34:17.062Z,8.70
2023-04-17T17:36:49.376Z,8.73
2023-04-17T17:39:16.445Z,8.50
2023-04-17T17:41:45.210Z,8.30
2023-04-17T17:44:14.433Z,9.00
2023-04-17T17:46:42.922Z,8.43
2023-04-17T17:49:09.973Z,8.30
2023-04-17T17:51:36.892Z,7.93
2023-04-17T17:54:03.942Z,8.13
2023-04-17T17:56:31.081Z,7.60
2023-04-17T17:58:58.366Z,8.20
2023-04-17T18:01:25.353Z,7.30
2023-04-17T18:03:54.170Z,7.77
2023-04-17T18:06:21.479Z,7.33
2023-04-17T18:08:48.463Z,7.83
2023-04-17T18:11:15.372Z,7.63
2023-04-17T18:13:42.129Z,7.93
2023-04-17T18:16:09.995Z,7.50
2023-04-17T18:18:36.954Z,7.93
2023-04-17T18:21:07.765Z,8.10
2023-04-17T18:23:35.103Z,8.43
2023-04-17T18:26:03.234Z,7.90
2023-04-17T18:28:30.597Z,7.63
2023-04-17T18:30:57.552Z,8.10
2023-04-17T18:33:24.675Z,6.40
2023-04-17T18:35:51.965Z,6.93
2023-04-17T18:38:20.186Z,6.47
2023-04-17T18:40:47.276Z,6.27
2023-04-17T18:43:14.064Z,6.17
2023-04-17T18:45:41.343Z,5.33
2023-04-17T18:48:08.770Z,5.47
2023-04-17T18:50:38.696Z,5.70
2023-04-17T18:53:05.584Z,6.00
2023-04-17T18:55:35.665Z,5.20
2023-04-17T18:58:02.940Z,4.90
2023-04-17T19:00:29.859Z,4.63
2023-04-17T19:02:56.798Z,4.07
2023-04-17T19:05:25.592Z,3.97
2023-04-17T19:07:52.546Z,3.50
2023-04-17T19:10:19.597Z,3.67
2023-04-17T19:12:47.896Z,3.50
2023-04-17T19:15:18.004Z,3.53
2023-04-17T19:17:44.874Z,3.20
2023-04-17T19:20:12.162Z,3.40
2023-04-17T19:22:39.121Z,3.40
2023-04-17T19:25:06.701Z,3.40
2023-04-17T19:27:33.559Z,3.53
2023-04-17T19:30:01.826Z,3.47
2023-04-17T19:32:30.393Z,3.40
2023-04-17T19:34:59.183Z,3.40
2023-04-17T19:37:26.073Z,3.80
2023-04-17T19:39:56.491Z,3.90
2023-04-17T19:42:23.769Z,4.23
2023-04-17T19:44:50.658Z,4.07
2023-04-17T19:47:18.867Z,4.33
2023-04-17T19:49:46.071Z,4.03
2023-04-17T19:52:12.921Z,4.07
2023-04-17T19:54:40.514Z,3.70
2023-04-17T19:57:07.331Z,4.07
2023-04-17T19:59:34.599Z,4.57
2023-04-17T20:02:01.475Z,7.83
2023-04-17T20:04:30.065Z,3.90
2023-04-17T20:06:57.733Z,4.00
2023-04-17T20:09:24.927Z,3.97
2023-04-17T20:11:51.812Z,3.90
2023-04-17T20:14:19.997Z,3.97
2023-04-17T20:16:49.829Z,3.73
2023-04-17T20:19:16.693Z,3.87
2023-04-17T20:21:46.765Z,4.00
2023-04-17T20:24:15.715Z,4.10
2023-04-17T20:26:44.180Z,4.87
2023-04-17T20:29:11.548Z,4.13
2023-04-17T20:31:38.939Z,4.30
2023-04-17T20:34:06.037Z,4.00
2023-04-17T20:36:32.925Z,3.97
2023-04-17T20:39:01.417Z,4.20
2023-04-17T20:41:28.310Z,4.20
2023-04-17T20:43:59.423Z,4.33
2023-04-17T20:46:26.500Z,5.00
2023-04-17T20:48:53.711Z,4.63
2023-04-17T20:51:21.408Z,4.97
2023-04-17T20:53:48.583Z,5.47
2023-04-17T20:56:16.897Z,4.70
2023-04-17T20:58:44.402Z,5.20
2023-04-17T21:01:11.215Z,4.50
2023-04-17T21:03:38.653Z,4.37
2023-04-17T21:06:05.847Z,5.17
2023-04-17T21:08:32.794Z,4.37
2023-04-17T21:11:00.385Z,4.63
2023-04-17T21:13:28.879Z,5.13
2023-04-17T21:15:55.737Z,4.70
2023-04-17T21:18:23.067Z,5.40
2023-04-17T21:20:49.822Z,5.00
2023-04-17T21:23:16.949Z,5.00
2023-04-17T21:25:43.776Z,5.20
2023-04-17T21:28:10.945Z,5.27
2023-04-17T21:30:39.193Z,8.87
2023-04-17T21:33:06.370Z,6.10
2023-04-17T21:35:34.838Z,5.33
2023-04-17T21:38:01.686Z,5.40
2023-04-17T21:40:33.112Z,5.80
2023-04-17T21:43:00.584Z,5.60
2023-04-17T21:45:27.407Z,6.20
2023-04-17T21:47:56.283Z,6.17
2023-04-17T21:50:23.159Z,6.27
2023-04-17T21:52:50.411Z,6.60
2023-04-17T21:55:17.396Z,7.43
2023-04-17T21:57:44.520Z,8.00
2023-04-17T22:00:12.809Z,7.90
2023-04-17T22:02:40.233Z,7.97
2023-04-17T22:05:08.902Z,8.60
2023-04-17T22:07:47.284Z,8.30
2023-04-17T22:10:18.510Z,8.17
2023-04-17T22:12:45.740Z,8.37
2023-04-17T22:15:12.657Z,8.17
2023-04-17T22:17:40.357Z,8.57
2023-04-17T22:20:09.953Z,8.50
2023-04-17T22:22:37.074Z,8.03
2023-04-17T22:25:04.555Z,7.97
2023-04-17T22:27:31.726Z,8.57
2023-04-17T22:29:58.490Z,7.80
2023-04-17T22:32:25.657Z,8.07
2023-04-17T22:34:52.552Z,7.67
2023-04-17T22:37:21.434Z,7.83
2023-04-17T22:39:49.086Z,7.90
2023-04-17T22:42:16.223Z,8.20
2023-04-17T22:44:43.111Z,8.93
2023-04-17T22:47:10.126Z,8.53
2023-04-17T22:49:38.078Z,8.30
2023-04-17T22:52:06.489Z,8.40
2023-04-17T22:54:34.887Z,8.80
2023-04-17T22:57:04.814Z,8.50
2023-04-17T22:59:31.671Z,8.00
2023-04-17T23:01:59.068Z,9.33
2023-04-17T23:04:26.040Z,8.13
2023-04-17T23:06:53.166Z,8.57
2023-04-17T23:09:20.112Z,8.77
2023-04-17T23:11:49.971Z,9.00
2023-04-17T23:14:17.283Z,8.57
2023-04-17T23:16:44.113Z,8.90
2023-04-17T23:19:10.935Z,8.63
2023-04-17T23:21:37.824Z,8.53
2023-04-17T23:24:04.640Z,8.60
2023-04-17T23:26:31.999Z,8.93
2023-04-17T23:29:00.208Z,10.13
2023-04-17T23:31:27.367Z,9.30
2023-04-17T23:33:54.168Z,9.57
2023-04-17T23:36:21.235Z,9.17
2023-04-17T23:38:48.054Z,9.80
2023-04-17T23:41:14.928Z,9.30
2023-04-17T23:43:41.719Z,10.03
2023-04-17T23:46:10.262Z,9.80
2023-04-17T23:48:37.096Z,9.63
2023-04-17T23:51:04.635Z,10.37
2023-04-17T23:53:31.425Z,9.50
2023-04-17T23:55:58.571Z,10.30
2023-04-17T23:58:25.524Z,10.10
